Time;durP1;ratioP1;P1;durP2;ratioP2;P2;SDS_P1;SDS_P2;PMS_P1;PMS_P2;Temp;Humidity;BMP_temperature;BMP_pressure;BME280_temperature;BME280_humidity;BME280_pressure;Samples;Min_cycle;Max_cycle;Signal;HPM_P1;HPM_P2
2022/01/09 00:00:20;;;;;;;61.08;12.23;;;8.30;99.90;;;8.39;94.64;98867.50;5074864;28;20054;-71
2022/01/09 00:02:49;;;;;;;61.90;12.40;;;8.20;99.90;;;8.51;93.96;98871.56;5073878;28;20056;-71
2022/01/09 00:05:18;;;;;;;65.00;13.13;;;8.30;99.90;;;8.42;94.57;98877.94;5074690;28;20048;-70
2022/01/09 00:07:46;;;;;;;59.90;11.80;;;8.30;99.90;;;8.45;93.98;98882.25;5074594;28;20106;-68
2022/01/09 00:10:17;;;;;;;59.05;12.30;;;8.30;99.90;;;8.38;93.36;98892.09;5074575;28;20048;-69
2022/01/09 00:12:46;;;;;;;57.25;12.07;;;8.30;99.90;;;8.45;92.74;98880.50;5074931;28;20417;-68
2022/01/09 00:15:14;;;;;;;48.17;11.32;;;8.30;99.90;;;8.44;92.43;98899.00;5074568;28;20555;-69
2022/01/09 00:17:43;;;;;;;49.00;11.93;;;8.30;99.90;;;8.39;91.51;98901.75;5074478;28;20048;-68
2022/01/09 00:20:13;;;;;;;49.20;11.85;;;8.30;99.90;;;8.47;92.22;98912.06;5074664;28;20049;-68
2022/01/09 00:22:45;;;;;;;42.33;10.80;;;8.30;99.90;;;8.39;91.14;98924.56;5074399;28;20106;-68
2022/01/09 00:25:17;;;;;;;44.33;10.05;;;8.30;99.90;;;8.37;90.79;98919.34;5074381;28;20047;-61
2022/01/09 00:27:46;;;;;;;62.38;11.93;;;8.30;99.90;;;8.35;90.53;98929.06;5074773;28;20072;-70
2022/01/09 00:30:18;;;;;;;56.90;11.13;;;8.20;99.90;;;8.36;89.94;98938.72;5074488;28;20135;-69
2022/01/09 00:32:47;;;;;;;43.97;11.95;;;8.30;99.90;;;8.36;89.93;98943.97;5074035;28;20457;-70
2022/01/09 00:35:17;;;;;;;47.20;10.90;;;8.30;99.90;;;8.39;90.10;98940.38;5074367;28;20095;-69
2022/01/09 00:37:45;;;;;;;57.17;11.93;;;8.20;99.90;;;8.36;90.54;98941.34;5074671;28;20094;-70
2022/01/09 00:40:16;;;;;;;56.50;11.30;;;8.20;99.90;;;8.42;90.78;98950.84;5073996;28;20120;-70
2022/01/09 00:42:45;;;;;;;56.05;12.48;;;8.30;99.90;;;8.42;90.87;98946.41;5073028;28;20437;-70
2022/01/09 00:45:17;;;;;;;58.35;12.60;;;8.30;99.90;;;8.37;90.69;98968.53;5073912;28;20505;-70
2022/01/09 00:47:46;;;;;;;51.35;11.93;;;8.30;99.90;;;8.32;89.90;98966.03;5074088;28;20466;-69
2022/01/09 00:50:16;;;;;;;55.55;11.30;;;8.20;99.90;;;8.28;89.78;98971.41;5073702;28;20048;-69
2022/01/09 00:52:45;;;;;;;;;;;8.20;99.90;;;8.45;88.96;98983.22;5074274;28;20049;-69
2022/01/09 00:55:14;;;;;;;48.03;10.77;;;8.30;99.90;;;8.34;89.21;98964.22;5073975;28;20392;-70
2022/01/09 00:57:43;;;;;;;44.67;10.45;;;8.30;99.90;;;8.29;88.64;98965.22;5073701;28;20079;-69
2022/01/09 01:00:14;;;;;;;48.13;10.27;;;8.20;99.90;;;8.34;88.33;98976.50;5073388;28;20102;-69
2022/01/09 01:02:42;;;;;;;;;;;8.20;99.90;;;8.23;88.12;98983.81;5074068;28;20076;-69
2022/01/09 01:05:12;;;;;;;51.22;10.98;;;8.10;99.90;;;8.16;88.34;98970.78;5073471;28;19981;-69
2022/01/09 01:07:41;;;;;;;50.93;9.57;;;8.20;99.90;;;8.13;88.04;98970.84;5073365;28;20090;-69
2022/01/09 01:10:13;;;;;;;40.78;9.90;;;8.10;99.90;;;8.27;87.90;98983.69;5073491;28;20283;-69
2022/01/09 01:12:43;;;;;;;41.45;10.15;;;8.10;99.90;;;8.19;87.40;98997.03;5072448;28;20446;-69
2022/01/09 01:15:12;;;;;;;47.00;9.27;;;8.10;99.90;;;8.23;87.24;99002.25;5073719;28;20052;-69
2022/01/09 01:17:41;;;;;;;44.30;9.43;;;8.10;99.90;;;8.15;86.93;98984.84;5073323;28;20042;-70
2022/01/09 01:20:11;;;;;;;46.60;10.15;;;8.10;99.90;;;8.27;87.19;99022.31;5073175;28;20094;-69
2022/01/09 01:22:40;;;;;;;39.30;9.95;;;8.10;99.90;;;8.14;87.14;99029.66;5073521;28;20044;-69
2022/01/09 01:25:10;;;;;;;50.58;9.80;;;8.10;99.90;;;8.28;86.94;99042.50;5073098;28;20119;-69
2022/01/09 01:27:39;;;;;;;42.83;10.02;;;8.10;99.90;;;8.37;87.63;99042.28;5073060;28;20097;-69
2022/01/09 01:30:10;;;;;;;43.35;8.95;;;8.20;99.90;;;8.01;86.94;99028.22;5073067;28;20044;-69
2022/01/09 01:32:40;;;;;;;45.13;10.05;;;8.10;99.90;;;8.07;86.26;99046.50;5073103;28;20086;-69
2022/01/09 01:35:11;;;;;;;37.97;8.63;;;8.00;99.90;;;8.20;86.17;99061.09;5073056;28;20048;-70
2022/01/09 01:37:42;;;;;;;40.20;10.80;;;8.00;99.90;;;7.60;86.36;98962.53;5073574;28;20045;-69
2022/01/09 01:40:14;;;;;;;40.30;8.48;;;8.00;99.90;;;8.11;86.85;99066.56;5073020;28;20048;-69
2022/01/09 01:42:43;;;;;;;36.13;8.15;;;8.00;99.90;;;8.07;87.00;99086.84;5073499;28;20068;-69
2022/01/09 01:45:13;;;;;;;41.05;8.85;;;8.00;99.90;;;8.18;87.06;99092.75;5072879;28;20044;-69
2022/01/09 01:47:41;;;;;;;42.70;8.45;;;8.00;99.90;;;8.08;86.85;99087.72;5073484;28;20044;-70
2022/01/09 01:50:13;;;;;;;39.90;9.05;;;8.00;99.90;;;8.12;86.58;99105.16;5072759;28;20497;-69
2022/01/09 01:52:48;;;;;;;38.60;8.45;;;8.00;99.90;;;8.04;86.45;99102.72;5071824;28;20561;-69
2022/01/09 01:55:18;;;;;;;35.95;8.73;;;7.90;99.90;;;8.09;86.95;99079.75;5073131;28;20094;-69
2022/01/09 01:57:46;;;;;;;37.15;8.80;;;8.00;99.90;;;8.14;87.26;99098.97;5073039;28;20127;-70
2022/01/09 02:00:17;;;;;;;31.48;7.85;;;8.00;99.90;;;7.99;87.47;99112.47;5072517;28;20143;-70
2022/01/09 02:02:46;;;;;;;49.15;9.43;;;7.90;99.90;;;8.07;87.43;99130.75;5072694;28;20502;-69
2022/01/09 02:05:14;;;;;;;27.88;8.43;;;7.90;99.90;;;8.12;87.60;99126.22;5073205;28;20036;-70
2022/01/09 02:07:43;;;;;;;36.50;7.75;;;8.00;99.90;;;8.02;86.95;99129.97;5072642;28;20083;-70
2022/01/09 02:10:11;;;;;;;40.65;9.50;;;7.90;99.90;;;8.03;87.36;99143.09;5072547;28;20045;-69
2022/01/09 02:12:41;;;;;;;36.03;8.55;;;7.90;99.90;;;7.93;87.38;99117.00;5072170;28;20079;-69
2022/01/09 02:15:33;;;;;;;37.42;9.18;;;7.90;99.90;;;7.93;86.98;99130.19;5072521;28;20056;-69
2022/01/09 02:18:04;;;;;;;38.63;8.70;;;7.80;99.90;;;7.93;87.30;99156.50;5072613;28;20123;-69
2022/01/09 02:20:36;;;;;;;34.33;8.30;;;7.80;99.90;;;7.98;87.13;99160.75;5072570;28;20044;-69
2022/01/09 02:23:07;;;;;;;37.60;8.25;;;7.80;99.90;;;8.04;87.00;99165.91;5073099;28;20037;-69
2022/01/09 02:25:36;;;;;;;35.22;8.93;;;7.90;99.90;;;7.97;86.61;99169.56;5072516;28;20098;-69
2022/01/09 02:28:06;;;;;;;38.28;8.15;;;7.80;99.90;;;8.07;86.44;99181.59;5072754;28;20390;-70
2022/01/09 02:30:35;;;;;;;31.63;8.15;;;7.90;99.90;;;7.89;86.42;99189.91;5072782;28;20110;-70
2022/01/09 02:33:06;;;;;;;38.03;8.70;;;7.80;99.90;;;7.84;86.15;99181.22;5072380;28;20055;-70
2022/01/09 02:35:37;;;;;;;37.00;7.90;;;7.70;99.90;;;7.87;84.98;99191.72;5072596;28;20086;-70
2022/01/09 02:38:07;;;;;;;36.55;8.25;;;7.70;99.90;;;7.84;85.20;99189.13;5072656;28;20072;-69
2022/01/09 02:40:36;;;;;;;;;;;7.70;99.90;;;7.79;85.32;99198.91;5073107;28;20048;-69
2022/01/09 02:43:04;;;;;;;30.02;6.82;;;7.70;99.90;;;7.74;85.32;99194.63;5072320;28;20007;-69
2022/01/09 02:45:33;;;;;;;38.22;8.38;;;7.60;99.90;;;7.67;85.19;99212.28;5072235;28;20051;-70
2022/01/09 02:48:03;;;;;;;34.50;9.02;;;7.60;99.90;;;7.69;85.09;99189.44;5072267;28;20120;-70
2022/01/09 02:50:36;;;;;;;27.63;7.63;;;7.60;99.90;;;7.58;84.78;99212.47;5072483;28;20048;-70
2022/01/09 02:53:19;;;;;;;28.67;7.75;;;7.50;99.90;;;7.59;85.27;99229.97;5072298;28;20064;-69
2022/01/09 02:55:49;;;;;;;26.08;8.45;;;7.50;99.90;;;7.51;85.30;99231.03;5071165;28;20052;-69
2022/01/09 02:58:17;;;;;;;30.23;7.65;;;7.40;99.90;;;7.55;85.17;99241.44;5072168;28;20040;-70
2022/01/09 03:00:46;;;;;;;32.53;7.32;;;7.40;99.90;;;7.44;84.45;99235.53;5071869;28;20057;-69
2022/01/09 03:03:15;;;;;;;25.70;7.15;;;7.40;99.90;;;7.51;83.67;99231.03;5072105;28;20048;-69
2022/01/09 03:05:43;;;;;;;22.40;7.25;;;7.40;99.90;;;7.51;83.56;99250.28;5072610;28;20052;-70
2022/01/09 03:08:13;;;;;;;25.17;7.05;;;7.40;99.90;;;7.48;83.57;99263.50;5072000;28;20067;-69
2022/01/09 03:10:42;;;;;;;22.40;7.78;;;7.40;99.90;;;7.52;83.82;99270.44;5070951;28;20049;-69
2022/01/09 03:13:10;;;;;;;27.33;7.20;;;7.40;99.90;;;7.52;84.30;99280.09;5072010;28;20512;-69
2022/01/09 03:15:39;;;;;;;31.60;7.60;;;7.40;99.90;;;7.40;84.19;99248.75;5072010;28;20060;-70
2022/01/09 03:18:08;;;;;;;25.88;6.82;;;7.40;99.90;;;7.28;83.47;99253.34;5072229;28;20110;-69
2022/01/09 03:20:36;;;;;;;30.58;7.70;;;7.40;99.90;;;7.62;83.75;99287.81;5071900;28;20079;-69
2022/01/09 03:23:05;;;;;;;24.90;7.15;;;7.50;99.90;;;7.56;83.95;99293.19;5071977;28;20552;-69
2022/01/09 03:25:35;;;;;;;23.52;6.82;;;7.50;99.90;;;7.54;83.71;99288.84;5075994;28;20057;-69
2022/01/09 03:28:04;;;;;;;25.73;6.05;;;7.40;99.90;;;7.51;83.25;99302.06;5074166;28;20494;-69
2022/01/09 03:30:33;;;;;;;27.97;7.37;;;7.40;99.90;;;7.47;82.87;99309.09;5075576;28;20041;-69
2022/01/09 03:33:02;;;;;;;22.92;6.55;;;7.40;99.90;;;7.42;82.84;99294.28;5075312;28;20041;-70
2022/01/09 03:35:32;;;;;;;20.77;6.88;;;7.30;99.90;;;7.43;83.02;99327.59;5075292;28;20098;-70
2022/01/09 03:38:00;;;;;;;21.55;7.32;;;7.30;99.90;;;7.47;83.32;99308.25;5075270;28;20072;-69
2022/01/09 03:40:29;;;;;;;21.88;7.22;;;7.30;99.90;;;7.35;83.46;99290.03;5075223;28;20067;-70
2022/01/09 03:42:59;;;;;;;25.23;7.82;;;7.40;99.90;;;7.54;83.08;99326.53;5075190;28;20048;-70
2022/01/09 03:45:28;;;;;;;32.00;7.03;;;7.40;99.90;;;7.42;83.66;99326.72;5075389;28;20048;-70
2022/01/09 03:47:58;;;;;;;23.38;7.50;;;7.30;99.90;;;7.35;83.62;99303.19;5075072;28;20290;-70
2022/01/09 03:50:27;;;;;;;21.85;7.30;;;7.40;99.90;;;7.42;82.79;99324.09;5074949;28;20050;-70
2022/01/09 03:52:55;;;;;;;25.77;6.55;;;7.30;99.90;;;7.39;82.71;99345.22;5074973;28;20045;-69
2022/01/09 03:55:25;;;;;;;19.15;6.93;;;7.30;99.90;;;7.43;82.79;99349.53;5074917;28;20124;-69
2022/01/09 03:57:54;;;;;;;20.98;6.93;;;7.30;99.90;;;7.38;82.98;99339.94;5074886;28;20072;-69
2022/01/09 04:00:25;;;;;;;30.15;8.00;;;7.30;99.90;;;7.37;82.83;99339.09;5074710;28;20080;-70
2022/01/09 04:02:54;;;;;;;26.60;7.57;;;7.20;99.90;;;7.31;82.66;99339.19;5074765;28;20090;-70
2022/01/09 04:05:23;;;;;;;25.02;6.95;;;7.20;99.90;;;7.36;82.02;99339.09;5074697;28;20405;-69
2022/01/09 04:07:52;;;;;;;22.75;7.30;;;7.20;99.90;;;7.27;81.94;99340.13;5075211;28;20127;-69
2022/01/09 04:10:42;;;;;;;34.00;7.43;;;7.20;99.90;;;7.29;81.56;99362.03;5074576;28;20504;-69
2022/01/09 04:13:13;;;;;;;25.65;7.22;;;7.20;99.90;;;7.37;81.34;99365.41;5074657;28;20044;-69
2022/01/09 04:15:47;;;;;;;32.15;7.57;;;7.20;99.90;;;7.39;81.18;99368.88;5075125;28;20114;-69
2022/01/09 04:18:18;;;;;;;20.45;7.63;;;7.30;99.90;;;7.34;81.96;99370.69;5075062;28;20048;-70
2022/01/09 04:20:47;;;;;;;30.80;7.28;;;7.30;99.90;;;7.31;82.38;99370.75;5074492;28;20052;-70
2022/01/09 04:23:16;;;;;;;22.17;7.28;;;7.20;99.90;;;7.18;82.51;99346.38;5074680;28;20121;-70
2022/01/09 04:25:47;;;;;;;24.52;7.30;;;7.20;99.90;;;7.33;82.74;99384.75;5074566;28;20444;-70
2022/01/09 04:28:16;;;;;;;30.55;7.00;;;7.20;99.90;;;7.34;83.11;99380.38;5074611;28;20052;-69
2022/01/09 04:30:46;;;;;;;26.97;7.43;;;7.20;99.90;;;7.31;83.96;99378.66;5074183;28;20129;-70
2022/01/09 04:33:15;;;;;;;23.45;7.80;;;7.20;99.90;;;7.31;83.57;99394.41;5073129;28;20314;-69
2022/01/09 04:35:44;;;;;;;23.20;7.60;;;7.20;99.90;;;7.39;83.74;99392.53;5073791;28;20094;-70
2022/01/09 04:38:13;;;;;;;30.17;7.00;;;7.20;99.90;;;7.42;83.24;99400.38;5074369;28;20033;-69
2022/01/09 04:40:41;;;;;;;24.60;7.28;;;7.30;99.90;;;7.37;82.89;99399.59;5074284;28;20159;-70
2022/01/09 04:43:11;;;;;;;25.33;7.10;;;7.30;99.90;;;7.30;83.57;99416.34;5106923;28;20079;-70
2022/01/09 04:45:40;;;;;;;23.85;7.03;;;7.20;99.90;;;7.34;83.74;99418.03;5074288;28;20045;-70
2022/01/09 04:48:12;;;;;;;30.50;8.13;;;7.30;99.90;;;7.31;84.07;99428.59;5073860;28;20128;-70
2022/01/09 04:50:43;;;;;;;30.90;7.45;;;7.20;99.90;;;7.32;84.43;99438.22;5074088;28;20044;-70
2022/01/09 04:53:11;;;;;;;27.95;7.43;;;7.20;99.90;;;7.26;84.14;99441.81;5073827;28;20441;-70
2022/01/09 04:55:42;;;;;;;21.83;7.55;;;7.20;99.90;;;7.26;84.08;99433.03;5073760;28;20493;-70
2022/01/09 04:58:11;;;;;;;24.38;7.20;;;7.20;99.90;;;7.27;83.74;99442.69;5074011;28;20064;-69
2022/01/09 05:00:40;;;;;;;27.42;7.68;;;7.20;99.90;;;7.27;84.56;99448.81;5073402;28;20076;-70
2022/01/09 05:03:12;;;;;;;30.20;7.47;;;7.20;99.90;;;7.37;83.99;99436.41;5073590;28;20131;-69
2022/01/09 05:05:41;;;;;;;31.25;8.52;;;7.30;99.90;;;7.43;83.50;99452.09;5073794;28;20277;-70
2022/01/09 05:08:09;;;;;;;28.42;8.07;;;7.30;99.90;;;7.30;83.13;99442.63;5073492;28;20068;-70
2022/01/09 05:10:38;;;;;;;27.08;7.20;;;7.20;99.90;;;7.43;82.63;99451.22;5073349;28;20079;-70
2022/01/09 05:13:06;;;;;;;25.83;8.60;;;7.30;99.90;;;7.38;82.79;99456.53;5073348;28;20068;-70
2022/01/09 05:15:35;;;;;;;23.58;7.38;;;7.30;99.90;;;7.37;82.64;99460.06;5073628;28;20155;-70
2022/01/09 05:18:11;;;;;;;23.92;7.13;;;7.30;99.90;;;7.39;82.72;99466.19;5073319;28;20053;-69
2022/01/09 05:20:41;;;;;;;24.23;7.57;;;7.30;99.90;;;7.48;82.79;99471.31;5073334;28;20102;-69
2022/01/09 05:23:09;;;;;;;24.58;7.90;;;7.30;99.90;;;7.47;82.88;99480.06;5073255;28;20452;-70
2022/01/09 05:25:38;;;;;;;31.88;8.05;;;7.40;99.90;;;7.50;82.80;99482.66;5073708;28;20144;-70
2022/01/09 05:28:06;;;;;;;19.95;6.93;;;7.40;99.90;;;7.42;82.52;99483.66;5073164;28;20470;-69
2022/01/09 05:30:35;;;;;;;31.70;7.63;;;7.30;99.90;;;7.52;82.41;99495.81;5073033;28;20098;-70
2022/01/09 05:33:04;;;;;;;25.58;7.03;;;7.40;99.90;;;7.43;83.04;99496.81;5073134;28;20127;-70
2022/01/09 05:35:32;;;;;;;31.83;7.85;;;7.30;99.90;;;7.39;83.41;99508.28;5073572;28;20040;-69
2022/01/09 05:38:02;;;;;;;22.98;7.35;;;7.30;99.90;;;7.56;83.21;99506.25;5073005;28;20071;-69
2022/01/09 05:40:30;;;;;;;23.80;7.60;;;7.40;99.90;;;7.57;83.13;99508.00;5071998;28;20053;-70
2022/01/09 05:42:59;;;;;;;32.42;6.78;;;7.40;99.90;;;7.60;82.23;99488.66;5073213;28;20370;-69
2022/01/09 05:45:28;;;;;;;27.58;7.25;;;7.40;99.90;;;7.41;82.16;99500.34;5072899;28;20463;-70
2022/01/09 05:47:56;;;;;;;23.52;6.47;;;7.30;99.90;;;7.37;83.33;99511.81;5072362;28;20090;-70
2022/01/09 05:50:24;;;;;;;26.23;7.18;;;7.30;99.90;;;7.36;83.74;99513.56;5072741;28;20079;-69
2022/01/09 05:52:53;;;;;;;21.30;6.55;;;7.30;99.90;;;7.43;84.07;99524.88;5073097;28;20044;-69
2022/01/09 05:55:23;;;;;;;28.02;8.20;;;7.30;99.90;;;7.49;83.84;99530.91;5073328;28;20040;-69
2022/01/09 05:57:51;;;;;;;20.88;7.72;;;7.40;99.90;;;7.47;84.16;99531.84;5072790;28;20044;-69
2022/01/09 06:00:19;;;;;;;22.05;7.40;;;7.30;99.90;;;7.52;83.50;99536.13;5073031;28;20068;-69
2022/01/09 06:02:48;;;;;;;19.45;6.80;;;7.40;99.90;;;7.51;83.80;99534.38;5073256;28;20509;-70
2022/01/09 06:05:17;;;;;;;28.13;7.47;;;7.40;99.90;;;7.49;83.61;99517.75;5071649;28;20386;-70
2022/01/09 06:07:45;;;;;;;23.95;7.00;;;7.40;99.90;;;7.34;83.53;99527.63;5072909;28;20102;-69
2022/01/09 06:10:14;;;;;;;26.70;7.40;;;7.30;99.90;;;7.43;82.84;99530.13;5071531;28;20052;-70
2022/01/09 06:12:43;;;;;;;20.17;6.38;;;7.30;99.90;;;7.44;82.65;99543.25;5072695;28;20052;-69
2022/01/09 06:15:12;;;;;;;21.07;6.83;;;7.40;99.90;;;7.38;82.78;99530.19;5072634;28;20084;-69
2022/01/09 06:17:43;;;;;;;28.23;7.50;;;7.30;99.90;;;7.37;82.23;99538.97;5072570;28;20093;-69
2022/01/09 06:20:14;;;;;;;24.98;7.10;;;7.30;99.90;;;7.48;82.57;99558.09;5072866;28;20044;-69
2022/01/09 06:22:44;;;;;;;30.27;8.00;;;7.30;99.90;;;7.50;82.42;99550.19;5072570;28;20041;-69
2022/01/09 06:25:14;;;;;;;29.02;7.85;;;7.40;99.90;;;7.37;82.04;99559.13;5072882;28;20095;-69
2022/01/09 06:27:44;;;;;;;22.48;6.75;;;7.30;99.90;;;7.41;82.17;99558.22;5072492;28;20080;-69
2022/01/09 06:30:13;;;;;;;27.07;7.70;;;7.30;99.90;;;7.40;82.26;99569.59;5072481;28;20157;-69
2022/01/09 06:32:41;;;;;;;35.70;7.68;;;7.30;99.90;;;7.40;82.61;99572.22;5072330;28;20298;-70
2022/01/09 06:35:11;;;;;;;23.38;7.55;;;7.30;99.90;;;7.39;82.61;99574.00;5072622;28;20405;-69
2022/01/09 06:37:42;;;;;;;23.52;6.63;;;7.30;99.90;;;7.40;81.89;99586.25;5072339;28;20440;-69
2022/01/09 06:40:12;;;;;;;26.88;6.68;;;7.30;99.90;;;7.54;82.07;99586.09;5072237;28;20127;-70
2022/01/09 06:42:40;;;;;;;25.40;7.57;;;7.40;99.90;;;7.61;81.74;99595.63;5072333;28;20044;-70
2022/01/09 06:45:12;;;;;;;23.55;7.22;;;7.40;99.90;;;7.62;81.64;99600.03;5072236;28;20385;-69
2022/01/09 06:47:40;;;;;;;23.15;7.38;;;7.50;99.90;;;7.48;81.59;99592.31;5072827;28;20055;-70
2022/01/09 06:50:11;;;;;;;22.08;7.50;;;7.40;99.90;;;7.55;81.27;99601.84;5072533;28;20057;-69
2022/01/09 06:52:39;;;;;;;20.60;7.07;;;7.50;99.90;;;7.49;81.02;99593.19;5072496;28;20076;-70
2022/01/09 06:55:10;;;;;;;24.05;7.28;;;7.40;99.90;;;7.35;81.19;99606.50;5071191;28;20432;-70
2022/01/09 06:57:39;;;;;;;30.30;8.02;;;7.30;99.90;;;7.43;81.58;99609.03;5073020;28;20072;-70
2022/01/09 07:00:17;;;;;;;22.30;7.43;;;7.30;99.90;;;7.50;81.27;99608.94;5075776;28;20457;-69
2022/01/09 07:02:46;;;;;;;19.35;6.80;;;7.40;99.90;;;7.43;81.22;99611.66;5075973;28;20140;-70
2022/01/09 07:05:16;;;;;;;26.85;7.22;;;7.40;99.90;;;7.59;80.65;99618.50;5076326;28;20060;-69
2022/01/09 07:07:44;;;;;;;20.85;6.88;;;7.40;99.90;;;7.48;80.10;99617.72;5075818;28;20456;-69
2022/01/09 07:10:13;;;;;;;19.17;6.63;;;7.40;99.90;;;7.54;80.25;99615.03;5075735;28;20049;-69
2022/01/09 07:12:42;;;;;;;16.40;6.85;;;7.40;99.90;;;7.53;80.38;99632.56;5075956;28;20454;-69
2022/01/09 07:15:12;;;;;;;29.83;7.45;;;7.40;99.90;;;7.53;81.02;99624.66;5076183;28;20119;-69
2022/01/09 07:17:40;;;;;;;;;;;7.40;99.90;;;7.46;81.78;99630.91;5076550;28;20052;-70
2022/01/09 07:20:11;;;;;;;22.35;7.10;;;7.30;99.90;;;7.55;82.04;99632.56;5075475;28;20374;-69
2022/01/09 07:22:39;;;;;;;28.42;6.40;;;7.40;99.90;;;7.58;81.44;99641.28;5074625;28;20059;-69
2022/01/09 07:25:09;;;;;;;15.75;6.22;;;7.40;99.90;;;7.50;81.25;99640.50;5075441;28;20091;-70
2022/01/09 07:27:38;;;;;;;26.17;6.90;;;7.40;99.90;;;7.44;81.46;99648.47;5075451;28;20501;-69
2022/01/09 07:30:08;;;;;;;24.85;6.00;;;7.40;99.90;;;7.57;81.79;99650.06;5075387;28;20040;-69
2022/01/09 07:32:40;;;;;;;;;;;7.40;99.90;;;7.58;81.92;99654.44;5076098;28;20045;-70
2022/01/09 07:35:09;;;;;;;24.50;7.85;;;7.50;99.90;;;7.55;82.04;99665.00;5108276;28;19943;-70
2022/01/09 07:37:38;;;;;;;19.38;6.80;;;7.50;99.90;;;7.46;82.52;99666.84;5075203;28;20068;-70
2022/01/09 07:40:08;;;;;;;25.40;7.88;;;7.40;99.90;;;7.39;82.28;99673.09;5075480;28;20223;-69
2022/01/09 07:42:36;;;;;;;25.45;7.13;;;7.30;99.90;;;7.37;82.76;99667.84;5075736;28;20071;-69
2022/01/09 07:45:07;;;;;;;26.80;7.97;;;7.30;99.90;;;7.38;82.53;99671.31;5075379;28;20040;-69
2022/01/09 07:47:36;;;;;;;28.88;8.45;;;7.30;99.90;;;7.35;82.64;99677.50;5074061;28;20490;-70
2022/01/09 07:50:09;;;;;;;26.10;7.57;;;7.30;99.90;;;7.43;81.78;99673.03;5074980;28;20040;-70
2022/01/09 07:52:38;;;;;;;24.75;7.18;;;7.30;99.90;;;7.43;81.17;99677.44;5075414;28;20186;-70
2022/01/09 07:55:09;;;;;;;26.48;7.25;;;7.30;99.90;;;7.48;80.82;99684.38;5074880;28;20040;-70
2022/01/09 07:57:37;;;;;;;;;;;7.40;99.90;;;7.53;81.55;99679.06;5075947;28;20040;-70
2022/01/09 08:00:09;;;;;;;29.20;7.10;;;7.40;99.90;;;7.59;81.03;99687.75;5075191;28;20078;-69
2022/01/09 08:02:41;;;;;;;32.08;7.15;;;7.50;99.90;;;7.57;80.85;99689.53;5074862;28;20053;-70
2022/01/09 08:05:12;;;;;;;32.72;7.13;;;7.50;99.90;;;7.45;80.29;99673.91;5074692;28;20056;-70
2022/01/09 08:07:41;;;;;;;28.48;7.20;;;7.50;99.90;;;7.55;80.08;99706.22;5075032;28;20151;-70
2022/01/09 08:10:11;;;;;;;22.35;6.13;;;7.50;99.90;;;7.47;80.98;99706.28;5073029;28;20126;-70
2022/01/09 08:12:41;;;;;;;20.15;6.65;;;7.40;99.90;;;7.50;81.08;99708.91;5075017;28;20094;-70
2022/01/09 08:15:11;;;;;;;21.10;6.68;;;7.40;99.90;;;7.54;81.42;99715.00;5074581;28;20036;-69
2022/01/09 08:17:44;;;;;;;24.38;6.97;;;7.40;99.90;;;7.57;82.32;99721.09;5075042;28;20098;-69
2022/01/09 08:20:16;;;;;;;25.48;6.97;;;7.40;99.90;;;7.52;82.18;99722.03;5074726;28;20048;-68
2022/01/09 08:22:45;;;;;;;27.35;6.93;;;7.40;99.90;;;7.45;82.37;99737.03;5074481;28;20128;-68
2022/01/09 08:25:15;;;;;;;29.08;7.07;;;7.40;99.90;;;7.26;83.93;99735.44;5074375;28;20467;-69
2022/01/09 08:27:45;;;;;;;35.00;7.15;;;7.20;99.90;;;7.31;84.78;99746.81;5074320;28;20040;-70
2022/01/09 08:30:18;;;;;;;31.88;8.07;;;7.20;99.90;;;7.32;85.28;99731.91;5074511;28;20044;-70
2022/01/09 08:32:47;;;;;;;29.20;7.47;;;7.20;99.90;;;7.31;84.65;99741.53;5074411;28;20044;-69
2022/01/09 08:35:18;;;;;;;23.65;7.05;;;7.20;99.90;;;7.32;84.28;99748.53;5074107;28;20123;-69
2022/01/09 08:37:47;;;;;;;28.48;7.57;;;7.20;99.90;;;7.35;83.68;99751.16;5073189;28;20098;-70
2022/01/09 08:40:19;;;;;;;26.88;6.93;;;7.20;99.90;;;7.42;83.42;99762.47;5074039;28;20075;-69
2022/01/09 08:42:49;;;;;;;26.30;7.00;;;7.30;99.90;;;7.53;83.24;99756.22;5074004;28;20102;-69
2022/01/09 08:45:18;;;;;;;21.23;7.17;;;7.40;99.90;;;7.64;82.51;99767.53;5073932;28;20106;-70
2022/01/09 08:47:47;;;;;;;20.10;7.00;;;7.50;99.90;;;7.57;82.64;99765.81;5073888;28;20076;-70
2022/01/09 08:50:20;;;;;;;29.10;7.45;;;7.50;99.90;;;7.48;82.82;99754.53;5073800;28;20052;-70
2022/01/09 08:52:49;;;;;;;37.25;7.65;;;7.40;99.90;;;7.59;82.40;99764.03;5073797;28;20048;-70
2022/01/09 08:55:18;;;;;;;27.92;7.55;;;7.40;99.90;;;7.57;82.52;99776.34;5074286;28;20044;-69
2022/01/09 08:57:47;;;;;;;29.23;7.78;;;7.40;99.90;;;7.58;81.87;99771.97;5073617;28;20048;-69
2022/01/09 09:00:18;;;;;;;22.23;6.30;;;7.40;99.90;;;7.43;81.76;99774.75;5073351;28;20123;-69
2022/01/09 09:02:47;;;;;;;26.80;7.50;;;7.40;99.90;;;7.30;84.20;99785.38;5073586;28;20128;-69
2022/01/09 09:05:18;;;;;;;22.48;7.13;;;7.30;99.90;;;7.14;84.75;99767.97;5073435;28;20041;-69
2022/01/09 09:07:46;;;;;;;29.63;7.40;;;7.20;99.90;;;7.37;85.19;99791.47;5073486;28;20157;-71
2022/01/09 09:10:15;;;;;;;30.15;7.28;;;7.20;99.90;;;7.36;85.21;99794.97;5073337;28;20108;-71
2022/01/09 09:12:43;;;;;;;28.98;7.38;;;7.20;99.90;;;7.30;85.68;99802.91;5073083;28;20041;-68
2022/01/09 09:15:12;;;;;;;27.55;7.82;;;7.30;99.90;;;7.51;85.45;99797.44;5073381;28;20048;-68
2022/01/09 09:17:41;;;;;;;30.73;7.68;;;7.40;99.90;;;7.55;85.23;99804.41;5073075;28;20041;-72
2022/01/09 09:20:10;;;;;;;24.75;6.70;;;7.40;99.90;;;7.51;84.85;99800.06;5072065;28;20390;-69
2022/01/09 09:22:40;;;;;;;22.45;6.88;;;7.40;99.90;;;7.37;84.23;99806.38;5072544;28;20052;-68
2022/01/09 09:25:10;;;;;;;35.35;7.25;;;7.30;99.90;;;7.46;83.58;99806.28;5072052;28;20052;-71
2022/01/09 09:27:39;;;;;;;25.27;7.03;;;7.40;99.90;;;7.45;83.05;99821.22;5073340;28;20052;-69
2022/01/09 09:30:10;;;;;;;25.58;6.82;;;7.40;99.90;;;7.37;83.58;99820.41;5072972;28;20115;-70
2022/01/09 09:32:39;;;;;;;33.20;7.65;;;7.30;99.90;;;7.38;83.91;99830.00;5073161;28;20040;-69
2022/01/09 09:35:09;;;;;;;29.60;7.80;;;7.30;99.90;;;7.51;84.20;99839.53;5072848;28;20406;-69
2022/01/09 09:37:37;;;;;;;28.73;7.47;;;7.40;99.90;;;7.52;83.90;99843.94;5072644;28;20064;-69
2022/01/09 09:40:09;;;;;;;24.92;6.95;;;7.40;99.90;;;7.52;83.89;99843.06;5073442;28;20071;-68
2022/01/09 09:42:38;;;;;;;34.70;7.82;;;7.40;99.90;;;7.59;83.49;99853.50;5071785;28;20119;-68
2022/01/09 09:45:08;;;;;;;32.63;7.95;;;7.40;99.90;;;7.57;82.57;99850.00;5072990;28;20155;-68
2022/01/09 09:47:39;;;;;;;26.92;7.32;;;7.40;99.90;;;7.47;83.68;99855.38;5072734;28;20131;-69
2022/01/09 09:50:11;;;;;;;27.92;7.13;;;7.40;99.90;;;7.44;83.06;99861.53;5073000;28;20060;-67
2022/01/09 09:52:41;;;;;;;24.40;6.75;;;7.40;99.90;;;7.52;83.39;99867.59;5072620;28;20405;-70
2022/01/09 09:55:11;;;;;;;24.25;6.95;;;7.40;99.90;;;7.05;83.01;99786.47;5071223;28;20457;-69
2022/01/09 09:57:40;;;;;;;20.48;6.43;;;7.40;99.90;;;7.66;82.65;99870.13;5072404;28;20124;-67
2022/01/09 10:00:12;;;;;;;22.92;6.93;;;7.50;99.90;;;7.70;82.38;99856.06;5072498;28;20052;-69
2022/01/09 10:02:44;;;;;;;27.80;7.50;;;7.60;99.90;;;7.60;81.96;99867.53;5071311;28;20045;-71
2022/01/09 10:05:16;;;;;;;28.15;7.82;;;7.50;99.90;;;7.54;82.91;99872.84;5072340;28;20047;-72
2022/01/09 10:07:50;;;;;;;23.02;7.05;;;7.50;99.90;;;7.19;84.54;99873.13;5072510;28;20383;-72
2022/01/09 10:10:22;;;;;;;30.20;7.78;;;7.20;99.90;;;6.97;85.61;99847.84;5072565;28;20086;-69
2022/01/09 10:12:51;;;;;;;25.55;7.45;;;7.10;99.90;;;7.30;86.57;99881.81;5072514;28;20059;-69
2022/01/09 10:15:21;;;;;;;24.48;6.75;;;7.10;99.90;;;7.32;86.96;99888.81;5071303;28;20135;-71
2022/01/09 10:17:51;;;;;;;30.17;8.68;;;7.20;99.90;;;6.74;86.45;99771.78;5072709;28;20101;-69
2022/01/09 10:20:23;;;;;;;32.55;7.97;;;7.30;99.90;;;7.44;86.48;99887.84;5072710;28;20094;-70
2022/01/09 10:22:54;;;;;;;24.90;7.65;;;7.30;99.90;;;7.53;85.32;99887.75;5072486;28;20048;-69
2022/01/09 10:25:35;;;;;;;32.10;7.28;;;7.40;99.90;;;7.34;84.40;99864.25;5072493;28;20049;-70
2022/01/09 10:28:09;;;;;;;;;;;7.40;99.90;;;7.53;84.02;99892.16;5072818;28;20044;-70
2022/01/09 10:30:41;;;;;;;35.05;9.13;;;7.40;99.90;;;7.49;83.79;99864.97;5105190;28;19970;-71
2022/01/09 10:33:13;;;;;;;31.15;8.05;;;7.50;99.90;;;7.57;83.78;99873.69;5074155;28;20543;-68
2022/01/09 10:35:44;;;;;;;32.47;7.00;;;7.50;99.90;;;7.66;83.63;99894.69;5075010;28;20052;-68
2022/01/09 10:38:22;;;;;;;28.02;7.28;;;7.60;99.90;;;7.77;83.21;99903.34;5076460;28;20060;-71